Time;durP1;ratioP1;P1;durP2;ratioP2;P2;SDS_P1;SDS_P2;PMS_P1;PMS_P2;Temp;Humidity;BMP_temperature;BMP_pressure;BME280_temperature;BME280_humidity;BME280_pressure;Samples;Min_cycle;Max_cycle;Signal;HPM_P1;HPM_P2
2023/05/31 00:00:03;;;;;;;;;;;;;;;;;;4876257;29;1919;-56
2023/05/31 00:02:30;;;;;;;;;;;;;;;;;;4877667;29;1957;-60
2023/05/31 00:05:00;;;;;;;;;;;;;;;;;;4877711;29;2268;-59
2023/05/31 00:07:27;;;;;;;;;;;;;;;;;;4877731;29;1995;-57
2023/05/31 00:09:55;;;;;;;;;;;;;;;;;;4877751;29;1789;-59
2023/05/31 00:12:22;;;;;;;;;;;;;;;;;;4896336;29;1947;-56
2023/05/31 00:14:49;;;;;;;;;;;;;;;;;;4896472;29;2073;-54
2023/05/31 00:17:16;;;;;;;;;;;;;;;;;;4896142;29;2095;-58
2023/05/31 00:19:46;;;;;;;;;;;;;;;;;;4896178;29;2160;-57
2023/05/31 00:22:16;;;;;;;;;;;;;;;;;;4896189;29;2137;-56
2023/05/31 00:24:44;;;;;;;;;;;;;;;;;;4895809;29;2447;-55
2023/05/31 00:27:11;;;;;;;;;;;;;;;;;;4896246;29;2003;-55
2023/05/31 00:29:39;;;;;;;;;;;;;;;;;;4896026;29;2245;-54
2023/05/31 00:32:07;;;;;;;;;;;;;;;;;;4896014;29;2165;-56
2023/05/31 00:34:34;;;;;;;;;;;;;;;;;;4895868;29;2025;-58
2023/05/31 00:37:01;;;;;;;;;;;;;;;;;;4895460;29;2054;-53
2023/05/31 00:39:29;;;;;;;;;;;;;;;;;;4895674;29;2206;-56
2023/05/31 00:41:56;;;;;;;;;;;;;;;;;;4895618;29;1921;-54
2023/05/31 00:44:23;;;;;;;;;;;;;;;;;;4894343;29;1864;-55
2023/05/31 00:46:50;;;;;;;;;;;;;;;;;;4896010;29;1907;-54
2023/05/31 00:49:18;;;;;;;;;;;;;;;;;;4894577;29;1881;-54
2023/05/31 00:51:45;;;;;;;;;;;;;;;;;;4895623;29;1956;-57
2023/05/31 00:54:13;;;;;;;;;;;;;;;;;;4897765;29;1890;-60
2023/05/31 00:56:40;;;;;;;;;;;;;;;;;;4895517;29;2135;-56
2023/05/31 00:59:08;;;;;;;;;;;;;;;;;;4895033;29;1893;-53
2023/05/31 01:01:37;;;;;;;;;;;;;;;;;;4895440;29;2046;-58
2023/05/31 01:04:05;;;;;;;;;;;;;;;;;;4893949;29;1938;-57
2023/05/31 01:06:34;;;;;;;;;;;;;;;;;;4878823;29;2002;-60
2023/05/31 01:09:05;;;;;;;;;;;;;;;;;;4876756;29;2252;-57
2023/05/31 01:11:51;;;;;;;;;;;;;;;;;;4876713;29;2119;-53
2023/05/31 01:14:21;;;;;;;;;;;;;;;;;;4876745;29;1939;-57
2023/05/31 01:16:54;;;;;;;;;;;;;;;;;;4876440;29;1832;-59
2023/05/31 01:19:48;;;;;;;;;;;;;;;;;;4892377;29;1881;-57
2023/05/31 01:22:50;;;;;;;;;;;;;;;;;;4893614;29;1921;-60
2023/05/31 01:25:25;;;;;;;;;;;;;;;;;;4905737;29;1913;-59
2023/05/31 01:27:53;;;;;;;;;;;;;;;;;;4893782;29;2009;-59
2023/05/31 01:30:21;;;;;;;;;;;;;;;;;;4895205;29;2398;-56
2023/05/31 01:32:49;;;;;;;;;;;;;;;;;;4895042;29;2164;-57
2023/05/31 01:35:17;;;;;;;;;;;;;;;;;;4894577;29;2066;-59
2023/05/31 01:37:45;;;;;;;;;;;;;;;;;;4895209;29;1958;-61
2023/05/31 01:40:13;;;;;;;;;;;;;;;;;;4894560;29;2014;-57
2023/05/31 01:42:41;;;;;;;;;;;;;;;;;;4893648;29;1932;-55
2023/05/31 01:45:09;;;;;;;;;;;;;;;;;;4895067;29;1983;-54
2023/05/31 01:47:37;;;;;;;;;;;;;;;;;;4895230;29;2066;-57
2023/05/31 01:50:04;;;;;;;;;;;;;;;;;;4894640;29;2148;-59
2023/05/31 01:52:32;;;;;;;;;;;;;;;;;;4894971;29;2053;-59
2023/05/31 01:55:00;;;;;;;;;;;;;;;;;;4895417;29;2036;-61
2023/05/31 01:57:27;;;;;;;;;;;;;;;;;;4889165;29;2078;-59
2023/05/31 01:59:56;;;;;;;;;;;;;;;;;;4875867;29;2361;-56
2023/05/31 02:02:27;;;;;;;;;;;;;;;;;;4880156;29;2156;-60
2023/05/31 02:05:13;;;;;;;;;;;;;;;;;;4879998;29;2092;-56
2023/05/31 02:07:40;;;;;;;;;;;;;;;;;;4879311;29;2281;-61
2023/05/31 02:10:08;;;;;;;;;;;;;;;;;;4878827;29;2078;-58
2023/05/31 02:12:37;;;;;;;;;;;;;;;;;;4878471;29;2096;-59
2023/05/31 02:15:10;;;;;;;;;;;;;;;;;;4879516;29;2072;-55
2023/05/31 02:17:43;;;;;;;;;;;;;;;;;;4878540;29;2254;-55
2023/05/31 02:20:13;;;;;;;;;;;;;;;;;;4878312;29;2321;-61
2023/05/31 02:22:41;;;;;;;;;;;;;;;;;;4898336;29;1996;-57
2023/05/31 02:25:09;;;;;;;;;;;;;;;;;;4896750;29;2619;-56
2023/05/31 02:27:39;;;;;;;;;;;;;;;;;;4896945;29;2189;-58
2023/05/31 02:30:07;;;;;;;;;;;;;;;;;;4881923;29;2099;-58
2023/05/31 02:32:37;;;;;;;;;;;;;;;;;;4879436;29;2112;-54
2023/05/31 02:35:06;;;;;;;;;;;;;;;;;;4878255;29;2059;-61
2023/05/31 02:37:34;;;;;;;;;;;;;;;;;;4879119;29;2352;-58
2023/05/31 02:40:07;;;;;;;;;;;;;;;;;;4879159;29;2112;-55
2023/05/31 02:42:38;;;;;;;;;;;;;;;;;;4878943;29;2375;-57
2023/05/31 02:45:07;;;;;;;;;;;;;;;;;;4878137;29;2242;-56
2023/05/31 02:47:36;;;;;;;;;;;;;;;;;;4877989;29;2560;-55
2023/05/31 02:50:04;;;;;;;;;;;;;;;;;;4879208;29;2154;-53
2023/05/31 02:52:31;;;;;;;;;;;;;;;;;;4909333;29;2367;-52
2023/05/31 02:55:12;;;;;;;;;;;;;;;;;;4897205;29;2026;-57
2023/05/31 02:58:06;;;;;;;;;;;;;;;;;;4886530;29;2235;-55
2023/05/31 03:00:38;;;;;;;;;;;;;;;;;;4877298;29;2210;-60
2023/05/31 03:03:05;;;;;;;;;;;;;;;;;;4877180;29;2017;-58
2023/05/31 03:05:55;;;;;;;;;;;;;;;;;;4877486;29;2058;-56
2023/05/31 03:08:23;;;;;;;;;;;;;;;;;;4877514;29;1975;-61
2023/05/31 03:10:50;;;;;;;;;;;;;;;;;;4876857;29;2356;-53
2023/05/31 03:13:18;;;;;;;;;;;;;;;;;;4876653;29;1950;-52
2023/05/31 03:15:45;;;;;;;;;;;;;;;;;;4878831;29;2181;-54
2023/05/31 03:18:12;;;;;;;;;;;;;;;;;;4878767;29;2079;-62
2023/05/31 03:20:42;;;;;;;;;;;;;;;;;;4876832;29;2098;-59
2023/05/31 03:23:10;;;;;;;;;;;;;;;;;;4877021;29;2355;-58
2023/05/31 03:25:37;;;;;;;;;;;;;;;;;;4880235;29;1996;-60
2023/05/31 03:28:04;;;;;;;;;;;;;;;;;;4896807;29;2203;-53
2023/05/31 03:30:34;;;;;;;;;;;;;;;;;;4895477;29;2309;-51
2023/05/31 03:33:02;;;;;;;;;;;;;;;;;;4895862;29;2113;-63
2023/05/31 03:35:30;;;;;;;;;;;;;;;;;;4886424;29;2109;-60
2023/05/31 03:38:01;;;;;;;;;;;;;;;;;;4877025;29;2087;-61
2023/05/31 03:40:30;;;;;;;;;;;;;;;;;;4877084;29;1970;-54
2023/05/31 03:42:59;;;;;;;;;;;;;;;;;;4876935;29;2011;-56
2023/05/31 03:45:27;;;;;;;;;;;;;;;;;;4877050;29;1966;-61
2023/05/31 03:47:55;;;;;;;;;;;;;;;;;;4876591;29;1992;-54
2023/05/31 03:50:22;;;;;;;;;;;;;;;;;;4876680;29;1891;-61
2023/05/31 03:52:50;;;;;;;;;;;;;;;;;;4877689;29;2222;-54
2023/05/31 03:55:17;;;;;;;;;;;;;;;;;;4895130;29;2062;-60
2023/05/31 03:57:44;;;;;;;;;;;;;;;;;;4888242;29;2052;-53
2023/05/31 04:00:12;;;;;;;;;;;;;;;;;;4876663;29;2039;-61
2023/05/31 04:02:41;;;;;;;;;;;;;;;;;;4877713;29;2149;-54
2023/05/31 04:05:18;;;;;;;;;;;;;;;;;;4896186;29;2147;-56
2023/05/31 04:07:45;;;;;;;;;;;;;;;;;;4894915;29;2416;-58
2023/05/31 04:10:13;;;;;;;;;;;;;;;;;;4896058;29;1959;-54
2023/05/31 04:12:40;;;;;;;;;;;;;;;;;;4894833;29;2205;-60
2023/05/31 04:15:08;;;;;;;;;;;;;;;;;;4895127;29;2142;-52
2023/05/31 04:17:35;;;;;;;;;;;;;;;;;;4894830;29;2119;-54
2023/05/31 04:20:07;;;;;;;;;;;;;;;;;;4895085;29;2272;-52
2023/05/31 04:22:35;;;;;;;;;;;;;;;;;;4894988;29;2012;-57
2023/05/31 04:25:02;;;;;;;;;;;;;;;;;;4895122;29;2088;-61
2023/05/31 04:27:38;;;;;;;;;;;;;;;;;;4895179;29;2039;-55
2023/05/31 04:30:06;;;;;;;;;;;;;;;;;;4894548;29;2231;-51
2023/05/31 04:32:34;;;;;;;;;;;;;;;;;;4894843;29;2088;-53
2023/05/31 04:35:03;;;;;;;;;;;;;;;;;;4894181;29;2290;-60
2023/05/31 04:37:35;;;;;;;;;;;;;;;;;;4894636;29;2296;-61
2023/05/31 04:40:08;;;;;;;;;;;;;;;;;;4893185;29;2308;-57
2023/05/31 04:42:40;;;;;;;;;;;;;;;;;;4892463;29;2047;-54
2023/05/31 04:45:18;;;;;;;;;;;;;;;;;;4905394;29;2327;-56
2023/05/31 04:47:49;;;;;;;;;;;;;;;;;;4874183;29;2279;-48
2023/05/31 04:50:18;;;;;;;;;;;;;;;;;;4874068;29;2513;-58
2023/05/31 04:52:46;;;;;;;;;;;;;;;;;;4889750;29;2034;-47
2023/05/31 04:55:14;;;;;;;;;;;;;;;;;;4894826;29;2181;-61
2023/05/31 04:57:41;;;;;;;;;;;;;;;;;;4886453;29;2435;-52
2023/05/31 05:00:15;;;;;;;;;;;;;;;;;;4875882;29;2055;-60
2023/05/31 05:03:03;;;;;;;;;;;;;;;;;;4876129;29;2253;-48
2023/05/31 05:05:31;;;;;;;;;;;;;;;;;;4875672;29;2319;-59
2023/05/31 05:07:59;;;;;;;;;;;;;;;;;;4875580;29;2239;-59
2023/05/31 05:10:26;;;;;;;;;;;;;;;;;;4875281;29;2081;-55
2023/05/31 05:12:54;;;;;;;;;;;;;;;;;;4876351;29;2342;-51
2023/05/31 05:15:21;;;;;;;;;;;;;;;;;;4875690;29;2286;-55
2023/05/31 05:17:48;;;;;;;;;;;;;;;;;;4874318;29;2285;-50
2023/05/31 05:20:16;;;;;;;;;;;;;;;;;;4873842;29;2263;-49
2023/05/31 05:22:49;;;;;;;;;;;;;;;;;;4892521;29;2347;-54
2023/05/31 05:25:17;;;;;;;;;;;;;;;;;;4892531;29;2157;-48
2023/05/31 05:27:44;;;;;;;;;;;;;;;;;;4893015;29;2300;-53
2023/05/31 05:30:12;;;;;;;;;;;;;;;;;;4892446;29;2375;-51
2023/05/31 05:32:39;;;;;;;;;;;;;;;;;;4892817;29;2159;-55
2023/05/31 05:35:06;;;;;;;;;;;;;;;;;;4876780;29;2412;-53
2023/05/31 05:37:34;;;;;;;;;;;;;;;;;;4878070;29;2109;-53
2023/05/31 05:40:01;;;;;;;;;;;;;;;;;;4877774;29;2247;-58
2023/05/31 05:42:30;;;;;;;;;;;;;;;;;;4877414;29;2197;-57
2023/05/31 05:45:00;;;;;;;;;;;;;;;;;;4879445;29;2517;-59
2023/05/31 05:47:27;;;;;;;;;;;;;;;;;;4893099;29;2333;-51
2023/05/31 05:49:55;;;;;;;;;;;;;;;;;;4877866;29;2127;-52
2023/05/31 05:52:22;;;;;;;;;;;;;;;;;;4877797;29;2509;-56
2023/05/31 05:54:49;;;;;;;;;;;;;;;;;;4892321;29;2199;-49
2023/05/31 05:57:16;;;;;;;;;;;;;;;;;;4890333;29;2338;-56
2023/05/31 05:59:47;;;;;;;;;;;;;;;;;;4875740;29;2469;-49
2023/05/31 06:02:18;;;;;;;;;;;;;;;;;;4875795;29;2277;-53
2023/05/31 06:04:47;;;;;;;;;;;;;;;;;;4875876;29;2623;-51
2023/05/31 06:07:14;;;;;;;;;;;;;;;;;;4876955;29;2159;-55
2023/05/31 06:09:42;;;;;;;;;;;;;;;;;;4876013;29;2445;-47
2023/05/31 06:12:09;;;;;;;;;;;;;;;;;;4875874;29;2063;-59
2023/05/31 06:14:40;;;;;;;;;;;;;;;;;;4875673;29;2513;-51
2023/05/31 06:17:08;;;;;;;;;;;;;;;;;;4876693;29;2213;-47
2023/05/31 06:19:35;;;;;;;;;;;;;;;;;;4877135;29;2425;-54
2023/05/31 06:22:02;;;;;;;;;;;;;;;;;;4877088;29;2555;-52
2023/05/31 06:24:29;;;;;;;;;;;;;;;;;;4878193;29;2186;-57
2023/05/31 06:26:57;;;;;;;;;;;;;;;;;;4878598;29;2513;-60
2023/05/31 06:29:29;;;;;;;;;;;;;;;;;;4877066;29;2154;-59
2023/05/31 06:31:56;;;;;;;;;;;;;;;;;;4878496;29;2235;-49
2023/05/31 06:34:26;;;;;;;;;;;;;;;;;;4876959;29;2129;-52
2023/05/31 06:36:56;;;;;;;;;;;;;;;;;;4876965;29;2269;-54
2023/05/31 06:39:23;;;;;;;;;;;;;;;;;;4895425;29;2173;-47
2023/05/31 06:41:50;;;;;;;;;;;;;;;;;;4896460;29;2254;-58
2023/05/31 06:44:35;;;;;;;;;;;;;;;;;;4896458;29;2350;-54
2023/05/31 06:47:18;;;;;;;;;;;;;;;;;;4895314;29;2385;-51
2023/05/31 06:50:04;;;;;;;;;;;;;;;;;;4896660;29;2149;-54
2023/05/31 06:52:46;;;;;;;;;;;;;;;;;;4896640;29;2008;-48
2023/05/31 06:55:40;;;;;;;;;;;;;;;;;;4879183;29;2225;-50
2023/05/31 06:58:14;;;;;;;;;;;;;;;;;;4881957;29;2303;-54
2023/05/31 07:00:41;;;;;;;;;;;;;;;;;;4876058;29;2285;-49
2023/05/31 07:03:08;;;;;;;;;;;;;;;;;;4877637;29;2577;-55
2023/05/31 07:05:36;;;;;;;;;;;;;;;;;;4876313;29;2428;-56
2023/05/31 07:08:05;;;;;;;;;;;;;;;;;;4876224;29;2096;-52
2023/05/31 07:10:39;;;;;;;;;;;;;;;;;;4876047;29;2395;-54
2023/05/31 07:13:07;;;;;;;;;;;;;;;;;;4877332;29;2099;-52
2023/05/31 07:15:34;;;;;;;;;;;;;;;;;;4876324;29;2685;-57
2023/05/31 07:18:01;;;;;;;;;;;;;;;;;;4875841;29;2330;-53
2023/05/31 07:20:29;;;;;;;;;;;;;;;;;;4876208;29;2587;-54
2023/05/31 07:22:57;;;;;;;;;;;;;;;;;;4877092;29;2342;-50
2023/05/31 07:25:24;;;;;;;;;;;;;;;;;;4876936;29;2290;-48
2023/05/31 07:27:51;;;;;;;;;;;;;;;;;;4876773;29;2219;-52
2023/05/31 07:30:19;;;;;;;;;;;;;;;;;;4876946;29;2076;-49
2023/05/31 07:32:46;;;;;;;;;;;;;;;;;;4877492;29;2304;-51
2023/05/31 07:35:14;;;;;;;;;;;;;;;;;;4877774;29;2238;-58
2023/05/31 07:37:41;;;;;;;;;;;;;;;;;;4877853;29;2454;-53
2023/05/31 07:40:08;;;;;;;;;;;;;;;;;;4877335;29;2484;-49
2023/05/31 07:42:36;;;;;;;;;;;;;;;;;;4877425;29;2285;-57
2023/05/31 07:45:03;;;;;;;;;;;;;;;;;;4877661;29;2601;-57
2023/05/31 07:47:31;;;;;;;;;;;;;;;;;;4877243;29;2159;-61
2023/05/31 07:49:58;;;;;;;;;;;;;;;;;;4877716;29;2322;-55
2023/05/31 07:52:26;;;;;;;;;;;;;;;;;;4878372;29;2460;-59
2023/05/31 07:54:53;;;;;;;;;;;;;;;;;;4894857;29;2068;-54
2023/05/31 07:57:20;;;;;;;;;;;;;;;;;;4890307;29;2454;-51
2023/05/31 07:59:50;;;;;;;;;;;;;;;;;;4878152;29;2664;-60
2023/05/31 08:02:20;;;;;;;;;;;;;;;;;;4878615;29;2427;-55
2023/05/31 08:04:47;;;;;;;;;;;;;;;;;;4878276;29;2328;-56
2023/05/31 08:07:15;;;;;;;;;;;;;;;;;;4877710;29;2497;-60
2023/05/31 08:09:43;;;;;;;;;;;;;;;;;;4877980;29;2387;-54
2023/05/31 08:12:11;;;;;;;;;;;;;;;;;;4877757;29;2443;-52
2023/05/31 08:14:38;;;;;;;;;;;;;;;;;;4878193;29;2337;-57
2023/05/31 08:17:05;;;;;;;;;;;;;;;;;;4885585;29;2288;-53
2023/05/31 08:19:32;;;;;;;;;;;;;;;;;;4877901;29;2289;-50
2023/05/31 08:22:00;;;;;;;;;;;;;;;;;;4877253;29;2167;-58
2023/05/31 08:24:28;;;;;;;;;;;;;;;;;;4877718;29;2163;-55
2023/05/31 08:26:56;;;;;;;;;;;;;;;;;;4877477;29;2048;-55
2023/05/31 08:29:23;;;;;;;;;;;;;;;;;;4877383;29;2545;-52
2023/05/31 08:31:50;;;;;;;;;;;;;;;;;;4878109;29;2109;-53
2023/05/31 08:34:19;;;;;;;;;;;;;;;;;;4877458;29;2114;-55
2023/05/31 08:36:47;;;;;;;;;;;;;;;;;;4877479;29;2149;-52
2023/05/31 08:39:14;;;;;;;;;;;;;;;;;;4877471;29;2355;-60
2023/05/31 08:42:01;;;;;;;;;;;;;;;;;;4877455;29;2244;-46
2023/05/31 08:44:29;;;;;;;;;;;;;;;;;;4877665;29;2317;-52
2023/05/31 08:46:58;;;;;;;;;;;;;;;;;;4877401;29;2416;-56
2023/05/31 08:49:25;;;;;;;;;;;;;;;;;;4877334;29;2240;-60
2023/05/31 08:51:53;;;;;;;;;;;;;;;;;;4877441;29;2318;-54
2023/05/31 08:54:21;;;;;;;;;;;;;;;;;;4888532;29;2110;-58
2023/05/31 08:56:48;;;;;;;;;;;;;;;;;;4895142;29;2318;-53
2023/05/31 08:59:18;;;;;;;;;;;;;;;;;;4877056;29;2293;-49
2023/05/31 09:01:46;;;;;;;;;;;;;;;;;;4876986;29;2377;-54
2023/05/31 09:04:16;;;;;;;;;;;;;;;;;;4876951;29;2312;-57
2023/05/31 09:06:43;;;;;;;;;;;;;;;;;;4877212;29;2169;-51
2023/05/31 09:09:10;;;;;;;;;;;;;;;;;;4876471;29;2323;-51
2023/05/31 09:11:40;;;;;;;;;;;;;;;;;;4876590;29;2227;-54
2023/05/31 09:14:10;;;;;;;;;;;;;;;;;;4876881;29;2510;-50
2023/05/31 09:16:38;;;;;;;;;;;;;;;;;;4877030;29;2101;-54
2023/05/31 09:19:06;;;;;;;;;;;;;;;;;;4876986;29;2406;-53
2023/05/31 09:21:40;;;;;;;;;;;;;;;;;;4876792;29;2258;-56
2023/05/31 09:24:09;;;;;;;;;;;;;;;;;;4876670;29;2274;-53
2023/05/31 09:26:47;;;;;;;;;;;;;;;;;;4876816;29;2266;-56
2023/05/31 09:29:15;;;;;;;;;;;;;;;;;;4877030;29;2535;-51
2023/05/31 09:31:43;;;;;;;;;;;;;;;;;;4876471;29;2263;-49
2023/05/31 09:34:26;;;;;;;;;;;;;;;;;;4883295;29;2259;-51
2023/05/31 09:36:57;;;;;;;;;;;;;;;;;;4876571;29;2286;-56
2023/05/31 09:39:24;;;;;;;;;;;;;;;;;;4875932;29;2517;-52
2023/05/31 09:41:52;;;;;;;;;;;;;;;;;;4876687;29;2401;-57
2023/05/31 09:44:25;;;;;;;;;;;;;;;;;;4876607;29;2259;-51
2023/05/31 09:46:52;;;;;;;;;;;;;;;;;;4876959;29;2285;-55
2023/05/31 09:49:20;;;;;;;;;;;;;;;;;;4876398;29;2063;-47
2023/05/31 09:51:52;;;;;;;;;;;;;;;;;;4876596;29;2297;-53
2023/05/31 09:54:24;;;;;;;;;;;;;;;;;;4892813;29;2090;-52
2023/05/31 09:56:54;;;;;;;;;;;;;;;;;;4892313;29;2435;-51
2023/05/31 09:59:22;;;;;;;;;;;;;;;;;;4894003;29;2266;-50
2023/05/31 10:01:50;;;;;;;;;;;;;;;;;;4895304;29;2198;-54
2023/05/31 10:04:18;;;;;;;;;;;;;;;;;;4894987;29;2254;-51
2023/05/31 10:06:46;;;;;;;;;;;;;;;;;;4895471;29;2246;-54
2023/05/31 10:09:13;;;;;;;;;;;;;;;;;;4895606;29;2305;-52
2023/05/31 10:11:42;;;;;;;;;;;;;;;;;;4876805;29;2213;-49
2023/05/31 10:14:12;;;;;;;;;;;;;;;;;;4876743;29;2297;-61
2023/05/31 10:16:45;;;;;;;;;;;;;;;;;;4875996;29;2220;-57
2023/05/31 10:19:15;;;;;;;;;;;;;;;;;;4876392;29;2070;-54
2023/05/31 10:21:43;;;;;;;;;;;;;;;;;;4878388;29;2132;-50
2023/05/31 10:24:26;;;;;;;;;;;;;;;;;;4880013;29;2216;-55
2023/05/31 10:27:02;;;;;;;;;;;;;;;;;;4879738;29;2230;-56
2023/05/31 10:29:39;;;;;;;;;;;;;;;;;;4879721;29;2210;-49
2023/05/31 10:32:27;;;;;;;;;;;;;;;;;;4879576;29;2467;-57
2023/05/31 10:34:55;;;;;;;;;;;;;;;;;;4879499;29;2069;-53
2023/05/31 10:37:23;;;;;;;;;;;;;;;;;;4879124;29;2067;-55
2023/05/31 10:39:55;;;;;;;;;;;;;;;;;;4879838;29;2152;-51
2023/05/31 10:42:34;;;;;;;;;;;;;;;;;;4879509;29;2058;-60
2023/05/31 10:45:08;;;;;;;;;;;;;;;;;;4878064;29;1975;-56
2023/05/31 10:47:39;;;;;;;;;;;;;;;;;;4877727;29;1947;-60
2023/05/31 10:50:06;;;;;;;;;;;;;;;;;;4877640;29;1973;-57
2023/05/31 10:52:34;;;;;;;;;;;;;;;;;;4877742;29;2206;-59
2023/05/31 10:55:21;;;;;;;;;;;;;;;;;;4899375;29;2099;-46
2023/05/31 10:57:55;;;;;;;;;;;;;;;;;;4887959;29;2101;-56
2023/05/31 11:00:23;;;;;;;;;;;;;;;;;;4877454;29;2272;-55
2023/05/31 11:02:56;;;;;;;;;;;;;;;;;;4877734;29;2109;-53
2023/05/31 11:05:27;;;;;;;;;;;;;;;;;;4877566;29;2057;-58
2023/05/31 11:07:57;;;;;;;;;;;;;;;;;;4877650;29;2094;-50
2023/05/31 11:10:34;;;;;;;;;;;;;;;;;;4876739;29;2080;-51
2023/05/31 11:13:05;;;;;;;;;;;;;;;;;;4876283;29;2522;-50
2023/05/31 11:15:40;;;;;;;;;;;;;;;;;;4877095;29;1932;-55
2023/05/31 11:18:14;;;;;;;;;;;;;;;;;;4877324;29;2079;-57
2023/05/31 11:20:41;;;;;;;;;;;;;;;;;;4876792;29;2290;-58
2023/05/31 11:23:20;;;;;;;;;;;;;;;;;;4877130;29;1975;-58
2023/05/31 11:26:06;;;;;;;;;;;;;;;;;;4877157;29;2646;-57
2023/05/31 11:28:52;;;;;;;;;;;;;;;;;;4877126;29;2145;-49
2023/05/31 11:31:38;;;;;;;;;;;;;;;;;;4877287;29;2001;-53
2023/05/31 11:34:20;;;;;;;;;;;;;;;;;;4875428;29;2038;-57
2023/05/31 11:36:48;;;;;;;;;;;;;;;;;;4875245;29;1956;-59
2023/05/31 11:39:18;;;;;;;;;;;;;;;;;;4875035;29;1987;-53
2023/05/31 11:41:45;;;;;;;;;;;;;;;;;;4875118;29;1999;-54
2023/05/31 11:44:14;;;;;;;;;;;;;;;;;;4875364;29;2218;-58
2023/05/31 11:46:44;;;;;;;;;;;;;;;;;;4875574;29;2029;-48
2023/05/31 11:49:11;;;;;;;;;;;;;;;;;;4875219;29;2599;-59
2023/05/31 11:51:48;;;;;;;;;;;;;;;;;;4875896;29;2042;-53
2023/05/31 11:54:16;;;;;;;;;;;;;;;;;;4889403;29;2381;-56
2023/05/31 11:56:44;;;;;;;;;;;;;;;;;;4893538;29;2069;-57
2023/05/31 11:59:13;;;;;;;;;;;;;;;;;;4893764;29;2469;-55
2023/05/31 12:01:40;;;;;;;;;;;;;;;;;;4893984;29;2087;-48
2023/05/31 12:04:07;;;;;;;;;;;;;;;;;;4894017;29;2100;-58
2023/05/31 12:06:35;;;;;;;;;;;;;;;;;;4895280;29;2337;-58
2023/05/31 12:09:03;;;;;;;;;;;;;;;;;;4895555;29;1963;-59
2023/05/31 12:11:30;;;;;;;;;;;;;;;;;;4895288;29;2484;-55
2023/05/31 12:13:58;;;;;;;;;;;;;;;;;;4895118;29;2055;-51
2023/05/31 12:16:26;;;;;;;;;;;;;;;;;;4894952;29;2485;-60
2023/05/31 12:18:54;;;;;;;;;;;;;;;;;;4894320;29;2284;-58
2023/05/31 12:21:24;;;;;;;;;;;;;;;;;;4894140;29;2265;-52
2023/05/31 12:23:55;;;;;;;;;;;;;;;;;;4893198;29;1918;-44
2023/05/31 12:26:24;;;;;;;;;;;;;;;;;;4894507;29;2017;-51
2023/05/31 12:28:51;;;;;;;;;;;;;;;;;;4894689;29;2078;-51
2023/05/31 12:31:25;;;;;;;;;;;;;;;;;;4894229;29;1890;-53
2023/05/31 12:33:59;;;;;;;;;;;;;;;;;;4894379;29;2145;-58
2023/05/31 12:36:27;;;;;;;;;;;;;;;;;;4894236;29;2145;-47
2023/05/31 12:38:59;;;;;;;;;;;;;;;;;;4894441;29;1991;-48
2023/05/31 12:41:26;;;;;;;;;;;;;;;;;;4894311;29;2021;-53
2023/05/31 12:43:54;;;;;;;;;;;;;;;;;;4893979;29;1923;-53
2023/05/31 12:46:21;;;;;;;;;;;;;;;;;;4892543;29;2224;-52
2023/05/31 12:48:48;;;;;;;;;;;;;;;;;;4890256;29;2036;-51
2023/05/31 12:51:25;;;;;;;;;;;;;;;;;;4877160;29;1899;-52
2023/05/31 12:54:00;;;;;;;;;;;;;;;;;;4885524;29;2043;-55
2023/05/31 12:56:27;;;;;;;;;;;;;;;;;;4895215;29;2633;-56
2023/05/31 12:58:55;;;;;;;;;;;;;;;;;;4878365;29;2115;-49
2023/05/31 13:01:23;;;;;;;;;;;;;;;;;;4877157;29;2143;-56
2023/05/31 13:03:50;;;;;;;;;;;;;;;;;;4876665;29;2037;-57
2023/05/31 13:06:17;;;;;;;;;;;;;;;;;;4876668;29;2059;-58
2023/05/31 13:08:44;;;;;;;;;;;;;;;;;;4876643;29;1990;-57
2023/05/31 13:11:12;;;;;;;;;;;;;;;;;;4895509;29;1935;-57
2023/05/31 13:13:39;;;;;;;;;;;;;;;;;;4895403;29;2029;-56
2023/05/31 13:16:06;;;;;;;;;;;;;;;;;;4895589;29;2058;-53
2023/05/31 13:18:33;;;;;;;;;;;;;;;;;;4895462;29;1968;-57
2023/05/31 13:21:01;;;;;;;;;;;;;;;;;;4895364;29;1970;-51
2023/05/31 13:23:28;;;;;;;;;;;;;;;;;;4895528;29;2310;-54
2023/05/31 13:25:56;;;;;;;;;;;;;;;;;;4895045;29;2070;-56
2023/05/31 13:28:26;;;;;;;;;;;;;;;;;;4895376;29;2228;-57
2023/05/31 13:30:53;;;;;;;;;;;;;;;;;;4895352;29;2146;-55
2023/05/31 13:33:20;;;;;;;;;;;;;;;;;;4894959;29;1958;-50
2023/05/31 13:35:47;;;;;;;;;;;;;;;;;;4895169;29;2048;-52
2023/05/31 13:38:14;;;;;;;;;;;;;;;;;;4894840;29;1965;-53
2023/05/31 13:40:43;;;;;;;;;;;;;;;;;;4893938;29;1948;-44
2023/05/31 13:43:12;;;;;;;;;;;;;;;;;;4894799;29;1935;-51
2023/05/31 13:45:39;;;;;;;;;;;;;;;;;;4895002;29;2307;-53
2023/05/31 13:48:06;;;;;;;;;;;;;;;;;;4895434;29;1936;-52
2023/05/31 13:50:34;;;;;;;;;;;;;;;;;;4894966;29;2144;-54
2023/05/31 13:53:01;;;;;;;;;;;;;;;;;;4895037;29;2299;-50
2023/05/31 13:55:29;;;;;;;;;;;;;;;;;;4879068;29;1971;-55
2023/05/31 13:57:56;;;;;;;;;;;;;;;;;;4880453;29;2194;-56
2023/05/31 14:00:23;;;;;;;;;;;;;;;;;;4880379;29;2224;-55
2023/05/31 14:02:52;;;;;;;;;;;;;;;;;;4880021;29;2038;-56
2023/05/31 14:05:19;;;;;;;;;;;;;;;;;;4880033;29;2083;-54
2023/05/31 14:07:47;;;;;;;;;;;;;;;;;;4879965;29;2235;-55
2023/05/31 14:10:14;;;;;;;;;;;;;;;;;;4880073;29;2109;-50
2023/05/31 14:12:41;;;;;;;;;;;;;;;;;;4879931;29;2144;-55
2023/05/31 14:15:08;;;;;;;;;;;;;;;;;;4879790;29;2216;-57
2023/05/31 14:17:36;;;;;;;;;;;;;;;;;;4879826;29;2041;-53
2023/05/31 14:20:04;;;;;;;;;;;;;;;;;;4879745;29;1904;-55
2023/05/31 14:22:31;;;;;;;;;;;;;;;;;;4879646;29;2376;-55
2023/05/31 14:24:58;;;;;;;;;;;;;;;;;;4879715;29;2168;-58
2023/05/31 14:27:25;;;;;;;;;;;;;;;;;;4879156;29;2198;-57
2023/05/31 14:29:53;;;;;;;;;;;;;;;;;;4879798;29;2097;-56
2023/05/31 14:32:20;;;;;;;;;;;;;;;;;;4879573;29;2238;-57
2023/05/31 14:34:47;;;;;;;;;;;;;;;;;;4879388;29;2361;-55
2023/05/31 14:37:15;;;;;;;;;;;;;;;;;;4889930;29;2395;-55
2023/05/31 14:39:45;;;;;;;;;;;;;;;;;;4901341;29;2262;-58
2023/05/31 14:42:12;;;;;;;;;;;;;;;;;;4898211;29;2092;-53
2023/05/31 14:44:40;;;;;;;;;;;;;;;;;;4897865;29;2698;-57
2023/05/31 14:47:07;;;;;;;;;;;;;;;;;;4898003;29;2327;-57
2023/05/31 14:49:34;;;;;;;;;;;;;;;;;;4897431;29;1984;-54
2023/05/31 14:52:01;;;;;;;;;;;;;;;;;;4898067;29;2122;-52
2023/05/31 14:54:28;;;;;;;;;;;;;;;;;;4900648;29;2093;-57
2023/05/31 14:56:56;;;;;;;;;;;;;;;;;;4894472;29;2165;-56
2023/05/31 14:59:28;;;;;;;;;;;;;;;;;;4878984;29;2499;-55
2023/05/31 15:01:58;;;;;;;;;;;;;;;;;;4878807;29;1969;-59
2023/05/31 15:04:25;;;;;;;;;;;;;;;;;;4878763;29;2436;-57
2023/05/31 15:06:53;;;;;;;;;;;;;;;;;;4878088;29;2159;-58
2023/05/31 15:09:20;;;;;;;;;;;;;;;;;;4878338;29;2049;-56
2023/05/31 15:11:48;;;;;;;;;;;;;;;;;;4878728;29;2039;-52
2023/05/31 15:14:15;;;;;;;;;;;;;;;;;;4878859;29;2016;-53
2023/05/31 15:16:43;;;;;;;;;;;;;;;;;;4878763;29;1995;-58
2023/05/31 15:19:11;;;;;;;;;;;;;;;;;;4878702;29;2028;-52
2023/05/31 15:21:40;;;;;;;;;;;;;;;;;;4878565;29;2270;-56
2023/05/31 15:24:07;;;;;;;;;;;;;;;;;;4877939;29;2001;-50
2023/05/31 15:26:34;;;;;;;;;;;;;;;;;;4878775;29;2181;-61
2023/05/31 15:29:03;;;;;;;;;;;;;;;;;;4878212;29;2337;-53
2023/05/31 15:31:32;;;;;;;;;;;;;;;;;;4878445;29;2062;-54
2023/05/31 15:34:00;;;;;;;;;;;;;;;;;;4878494;29;2467;-56
2023/05/31 15:36:27;;;;;;;;;;;;;;;;;;4878144;29;2117;-49
2023/05/31 15:39:00;;;;;;;;;;;;;;;;;;4878497;29;2697;-55
2023/05/31 15:41:27;;;;;;;;;;;;;;;;;;4896890;29;2225;-55
2023/05/31 15:43:54;;;;;;;;;;;;;;;;;;4896890;29;2042;-56
2023/05/31 15:46:22;;;;;;;;;;;;;;;;;;4896984;29;2321;-56
2023/05/31 15:48:51;;;;;;;;;;;;;;;;;;4896638;29;2217;-57
2023/05/31 15:51:18;;;;;;;;;;;;;;;;;;4896792;29;2298;-52
2023/05/31 15:53:45;;;;;;;;;;;;;;;;;;4898443;29;2150;-52
2023/05/31 15:56:12;;;;;;;;;;;;;;;;;;4896642;29;2270;-56
2023/05/31 15:58:40;;;;;;;;;;;;;;;;;;4881166;29;2517;-55
2023/05/31 16:01:07;;;;;;;;;;;;;;;;;;4878204;29;2462;-51
2023/05/31 16:03:35;;;;;;;;;;;;;;;;;;4877773;29;2282;-59
2023/05/31 16:06:02;;;;;;;;;;;;;;;;;;4877712;29;2376;-52
2023/05/31 16:08:32;;;;;;;;;;;;;;;;;;4877896;29;2246;-57
2023/05/31 16:11:01;;;;;;;;;;;;;;;;;;4877649;29;2104;-53
2023/05/31 16:13:28;;;;;;;;;;;;;;;;;;4877882;29;2101;-54
2023/05/31 16:15:55;;;;;;;;;;;;;;;;;;4877727;29;1873;-54
2023/05/31 16:18:23;;;;;;;;;;;;;;;;;;4877203;29;2001;-55
2023/05/31 16:20:50;;;;;;;;;;;;;;;;;;4877866;29;2141;-56
2023/05/31 16:23:17;;;;;;;;;;;;;;;;;;4877128;29;2215;-53
2023/05/31 16:25:45;;;;;;;;;;;;;;;;;;4877802;29;2267;-49
2023/05/31 16:28:12;;;;;;;;;;;;;;;;;;4877475;29;2401;-48
2023/05/31 16:30:39;;;;;;;;;;;;;;;;;;4878939;29;2160;-55
2023/05/31 16:33:08;;;;;;;;;;;;;;;;;;4877468;29;2126;-60
2023/05/31 16:35:35;;;;;;;;;;;;;;;;;;4877044;29;2123;-58
2023/05/31 16:38:02;;;;;;;;;;;;;;;;;;4877500;29;1858;-58
2023/05/31 16:40:29;;;;;;;;;;;;;;;;;;4877040;29;1900;-52
2023/05/31 16:42:56;;;;;;;;;;;;;;;;;;4877343;29;2077;-58
2023/05/31 16:45:24;;;;;;;;;;;;;;;;;;4877236;29;2287;-53
2023/05/31 16:47:51;;;;;;;;;;;;;;;;;;4877049;29;2068;-58
2023/05/31 16:50:18;;;;;;;;;;;;;;;;;;4877006;29;2130;-56
2023/05/31 16:52:51;;;;;;;;;;;;;;;;;;4877113;29;2037;-60
2023/05/31 16:55:19;;;;;;;;;;;;;;;;;;4897794;29;2135;-58
2023/05/31 16:57:47;;;;;;;;;;;;;;;;;;4886675;29;2062;-53
2023/05/31 17:00:14;;;;;;;;;;;;;;;;;;4876966;29;2241;-49
2023/05/31 17:02:41;;;;;;;;;;;;;;;;;;4877213;29;2044;-54
2023/05/31 17:05:09;;;;;;;;;;;;;;;;;;4876720;29;2052;-57
2023/05/31 17:07:36;;;;;;;;;;;;;;;;;;4876770;29;2200;-59
2023/05/31 17:10:04;;;;;;;;;;;;;;;;;;4876686;29;2124;-55
2023/05/31 17:12:31;;;;;;;;;;;;;;;;;;4876571;29;2073;-55
2023/05/31 17:14:59;;;;;;;;;;;;;;;;;;4877056;29;1979;-59
2023/05/31 17:17:26;;;;;;;;;;;;;;;;;;4876396;29;2037;-58